sensor_id;sensor_type;location;lat;lon;timestamp;P1;durP1;ratioP1;P2;durP2;ratioP2
5999;SDS011;3028;49.468;7.694;2023-05-07T00:00:22;3.05;;;1.83;;
5999;SDS011;3028;49.468;7.694;2023-05-07T00:02:24;2.13;;;1.92;;
5999;SDS011;3028;49.468;7.694;2023-05-07T00:04:25;2.42;;;2.22;;
5999;SDS011;3028;49.468;7.694;2023-05-07T00:06:27;5.82;;;1.88;;
5999;SDS011;3028;49.468;7.694;2023-05-07T00:08:30;2.28;;;1.90;;
5999;SDS011;3028;49.468;7.694;2023-05-07T00:10:31;2.55;;;2.10;;
5999;SDS011;3028;49.468;7.694;2023-05-07T00:12:33;2.45;;;2.25;;
5999;SDS011;3028;49.468;7.694;2023-05-07T00:14:35;2.97;;;2.28;;
5999;SDS011;3028;49.468;7.694;2023-05-07T00:16:37;3.17;;;2.22;;
5999;SDS011;3028;49.468;7.694;2023-05-07T00:18:38;6.00;;;2.47;;
5999;SDS011;3028;49.468;7.694;2023-05-07T00:20:40;2.45;;;2.15;;
5999;SDS011;3028;49.468;7.694;2023-05-07T00:22:41;3.65;;;2.17;;
5999;SDS011;3028;49.468;7.694;2023-05-07T00:24:43;5.32;;;3.20;;
5999;SDS011;3028;49.468;7.694;2023-05-07T00:26:44;2.88;;;2.20;;
5999;SDS011;3028;49.468;7.694;2023-05-07T00:28:46;2.67;;;2.17;;
5999;SDS011;3028;49.468;7.694;2023-05-07T00:30:48;3.08;;;2.58;;
5999;SDS011;3028;49.468;7.694;2023-05-07T00:32:49;3.20;;;2.90;;
5999;SDS011;3028;49.468;7.694;2023-05-07T00:34:52;2.55;;;2.35;;
5999;SDS011;3028;49.468;7.694;2023-05-07T00:36:53;2.45;;;2.25;;
5999;SDS011;3028;49.468;7.694;2023-05-07T00:38:56;2.60;;;2.40;;
5999;SDS011;3028;49.468;7.694;2023-05-07T00:40:58;4.10;;;2.22;;
5999;SDS011;3028;49.468;7.694;2023-05-07T00:42:59;2.35;;;2.15;;
5999;SDS011;3028;49.468;7.694;2023-05-07T00:45:01;4.32;;;1.92;;
5999;SDS011;3028;49.468;7.694;2023-05-07T00:47:03;3.08;;;2.45;;
5999;SDS011;3028;49.468;7.694;2023-05-07T00:49:06;2.40;;;2.20;;
5999;SDS011;3028;49.468;7.694;2023-05-07T00:51:09;3.33;;;2.38;;
5999;SDS011;3028;49.468;7.694;2023-05-07T00:53:12;4.22;;;2.28;;
5999;SDS011;3028;49.468;7.694;2023-05-07T00:55:14;2.38;;;2.17;;
5999;SDS011;3028;49.468;7.694;2023-05-07T00:57:15;5.63;;;2.40;;
5999;SDS011;3028;49.468;7.694;2023-05-07T00:59:17;2.13;;;1.92;;
5999;SDS011;3028;49.468;7.694;2023-05-07T01:01:19;2.47;;;2.15;;
5999;SDS011;3028;49.468;7.694;2023-05-07T01:03:21;3.85;;;2.38;;
5999;SDS011;3028;49.468;7.694;2023-05-07T01:05:23;3.33;;;2.65;;
5999;SDS011;3028;49.468;7.694;2023-05-07T01:07:26;3.95;;;2.90;;
5999;SDS011;3028;49.468;7.694;2023-05-07T01:09:28;3.05;;;2.40;;
5999;SDS011;3028;49.468;7.694;2023-05-07T01:11:30;3.40;;;3.10;;
5999;SDS011;3028;49.468;7.694;2023-05-07T01:13:32;3.58;;;3.28;;
5999;SDS011;3028;49.468;7.694;2023-05-07T01:15:34;4.30;;;3.00;;
5999;SDS011;3028;49.468;7.694;2023-05-07T01:17:39;2.47;;;2.28;;
5999;SDS011;3028;49.468;7.694;2023-05-07T01:19:42;3.47;;;2.20;;
5999;SDS011;3028;49.468;7.694;2023-05-07T01:21:44;3.08;;;2.72;;
5999;SDS011;3028;49.468;7.694;2023-05-07T01:23:47;1.92;;;1.80;;
5999;SDS011;3028;49.468;7.694;2023-05-07T01:25:52;2.95;;;2.10;;
5999;SDS011;3028;49.468;7.694;2023-05-07T01:27:54;1.55;;;1.42;;
5999;SDS011;3028;49.468;7.694;2023-05-07T01:29:55;1.90;;;1.80;;
5999;SDS011;3028;49.468;7.694;2023-05-07T01:31:58;2.25;;;2.05;;
5999;SDS011;3028;49.468;7.694;2023-05-07T01:34:01;2.10;;;1.90;;
5999;SDS011;3028;49.468;7.694;2023-05-07T01:36:03;2.20;;;2.00;;
5999;SDS011;3028;49.468;7.694;2023-05-07T01:38:07;2.85;;;2.28;;
5999;SDS011;3028;49.468;7.694;2023-05-07T01:40:09;1.80;;;1.70;;
5999;SDS011;3028;49.468;7.694;2023-05-07T01:42:11;3.65;;;1.73;;
5999;SDS011;3028;49.468;7.694;2023-05-07T01:44:13;2.85;;;2.00;;
5999;SDS011;3028;49.468;7.694;2023-05-07T01:46:15;2.38;;;2.00;;
5999;SDS011;3028;49.468;7.694;2023-05-07T01:48:18;2.78;;;2.58;;
5999;SDS011;3028;49.468;7.694;2023-05-07T01:50:20;5.55;;;2.65;;
5999;SDS011;3028;49.468;7.694;2023-05-07T01:52:22;2.83;;;2.08;;
5999;SDS011;3028;49.468;7.694;2023-05-07T01:54:27;2.53;;;2.00;;
5999;SDS011;3028;49.468;7.694;2023-05-07T01:56:29;10.85;;;2.40;;
5999;SDS011;3028;49.468;7.694;2023-05-07T01:58:31;2.95;;;2.22;;
5999;SDS011;3028;49.468;7.694;2023-05-07T02:00:32;2.35;;;1.88;;
5999;SDS011;3028;49.468;7.694;2023-05-07T02:02:34;2.58;;;2.38;;
5999;SDS011;3028;49.468;7.694;2023-05-07T02:04:36;4.03;;;2.22;;
5999;SDS011;3028;49.468;7.694;2023-05-07T02:06:37;2.95;;;2.28;;
5999;SDS011;3028;49.468;7.694;2023-05-07T02:08:39;1.80;;;1.70;;
5999;SDS011;3028;49.468;7.694;2023-05-07T02:10:41;3.40;;;2.33;;
5999;SDS011;3028;49.468;7.694;2023-05-07T02:12:42;4.72;;;2.13;;
5999;SDS011;3028;49.468;7.694;2023-05-07T02:14:44;3.03;;;2.10;;
5999;SDS011;3028;49.468;7.694;2023-05-07T02:16:45;2.45;;;2.28;;
5999;SDS011;3028;49.468;7.694;2023-05-07T02:18:47;2.72;;;2.22;;
5999;SDS011;3028;49.468;7.694;2023-05-07T02:20:49;2.80;;;2.03;;
5999;SDS011;3028;49.468;7.694;2023-05-07T02:22:50;2.58;;;2.28;;
5999;SDS011;3028;49.468;7.694;2023-05-07T02:24:52;2.83;;;2.50;;
5999;SDS011;3028;49.468;7.694;2023-05-07T02:26:53;2.30;;;2.10;;
5999;SDS011;3028;49.468;7.694;2023-05-07T02:28:55;2.15;;;1.95;;
5999;SDS011;3028;49.468;7.694;2023-05-07T02:30:56;4.32;;;2.60;;
5999;SDS011;3028;49.468;7.694;2023-05-07T02:32:59;3.63;;;2.28;;
5999;SDS011;3028;49.468;7.694;2023-05-07T02:35:01;4.05;;;2.42;;
5999;SDS011;3028;49.468;7.694;2023-05-07T02:37:03;2.85;;;2.53;;
5999;SDS011;3028;49.468;7.694;2023-05-07T02:39:04;4.20;;;2.30;;
5999;SDS011;3028;49.468;7.694;2023-05-07T02:41:06;3.20;;;2.78;;
5999;SDS011;3028;49.468;7.694;2023-05-07T02:43:07;2.22;;;2.03;;
5999;SDS011;3028;49.468;7.694;2023-05-07T02:45:09;3.15;;;2.45;;
5999;SDS011;3028;49.468;7.694;2023-05-07T02:47:11;2.30;;;2.10;;
5999;SDS011;3028;49.468;7.694;2023-05-07T02:49:14;2.67;;;2.47;;
5999;SDS011;3028;49.468;7.694;2023-05-07T02:51:19;3.38;;;2.55;;
5999;SDS011;3028;49.468;7.694;2023-05-07T02:53:24;2.83;;;2.45;;
5999;SDS011;3028;49.468;7.694;2023-05-07T02:55:28;2.53;;;2.20;;
5999;SDS011;3028;49.468;7.694;2023-05-07T02:57:31;3.00;;;2.70;;
5999;SDS011;3028;49.468;7.694;2023-05-07T02:59:32;1.90;;;1.73;;
5999;SDS011;3028;49.468;7.694;2023-05-07T03:01:34;2.78;;;2.58;;
5999;SDS011;3028;49.468;7.694;2023-05-07T03:03:35;2.40;;;2.20;;
5999;SDS011;3028;49.468;7.694;2023-05-07T03:05:37;12.05;;;1.80;;
5999;SDS011;3028;49.468;7.694;2023-05-07T03:07:38;2.47;;;2.10;;
5999;SDS011;3028;49.468;7.694;2023-05-07T03:09:40;3.65;;;2.38;;
5999;SDS011;3028;49.468;7.694;2023-05-07T03:11:42;2.50;;;2.17;;
5999;SDS011;3028;49.468;7.694;2023-05-07T03:13:43;2.33;;;2.03;;
5999;SDS011;3028;49.468;7.694;2023-05-07T03:15:45;1.80;;;1.70;;
5999;SDS011;3028;49.468;7.694;2023-05-07T03:17:47;3.20;;;2.90;;
5999;SDS011;3028;49.468;7.694;2023-05-07T03:19:49;2.45;;;2.25;;
5999;SDS011;3028;49.468;7.694;2023-05-07T03:21:50;1.80;;;1.70;;
5999;SDS011;3028;49.468;7.694;2023-05-07T03:23:52;7.15;;;2.22;;
5999;SDS011;3028;49.468;7.694;2023-05-07T03:25:54;2.92;;;2.38;;
5999;SDS011;3028;49.468;7.694;2023-05-07T03:27:56;2.90;;;1.92;;
5999;SDS011;3028;49.468;7.694;2023-05-07T03:29:57;2.60;;;1.98;;
5999;SDS011;3028;49.468;7.694;2023-05-07T03:31:59;2.67;;;2.47;;
5999;SDS011;3028;49.468;7.694;2023-05-07T03:34:00;4.75;;;2.80;;
5999;SDS011;3028;49.468;7.694;2023-05-07T03:36:02;2.38;;;2.17;;
5999;SDS011;3028;49.468;7.694;2023-05-07T03:38:04;4.85;;;2.28;;
5999;SDS011;3028;49.468;7.694;2023-05-07T03:40:06;2.53;;;2.20;;
5999;SDS011;3028;49.468;7.694;2023-05-07T03:42:09;6.57;;;3.47;;
5999;SDS011;3028;49.468;7.694;2023-05-07T03:44:10;3.03;;;2.72;;
5999;SDS011;3028;49.468;7.694;2023-05-07T03:46:12;2.78;;;2.58;;
5999;SDS011;3028;49.468;7.694;2023-05-07T03:48:13;3.10;;;2.53;;
5999;SDS011;3028;49.468;7.694;2023-05-07T03:50:15;4.90;;;3.28;;
5999;SDS011;3028;49.468;7.694;2023-05-07T03:52:16;3.35;;;3.05;;
5999;SDS011;3028;49.468;7.694;2023-05-07T03:54:24;5.20;;;3.17;;
5999;SDS011;3028;49.468;7.694;2023-05-07T03:56:25;3.67;;;2.72;;
5999;SDS011;3028;49.468;7.694;2023-05-07T03:58:29;3.03;;;2.80;;
5999;SDS011;3028;49.468;7.694;2023-05-07T04:00:31;3.47;;;3.17;;
5999;SDS011;3028;49.468;7.694;2023-05-07T04:02:35;3.88;;;3.00;;
5999;SDS011;3028;49.468;7.694;2023-05-07T04:04:36;3.42;;;2.38;;
5999;SDS011;3028;49.468;7.694;2023-05-07T04:06:38;3.55;;;3.25;;
5999;SDS011;3028;49.468;7.694;2023-05-07T04:08:39;3.88;;;3.53;;
5999;SDS011;3028;49.468;7.694;2023-05-07T04:10:41;3.55;;;3.15;;
5999;SDS011;3028;49.468;7.694;2023-05-07T04:12:43;2.90;;;2.70;;
5999;SDS011;3028;49.468;7.694;2023-05-07T04:14:44;3.63;;;2.78;;
5999;SDS011;3028;49.468;7.694;2023-05-07T04:16:46;3.03;;;2.83;;
5999;SDS011;3028;49.468;7.694;2023-05-07T04:18:48;3.05;;;2.75;;
5999;SDS011;3028;49.468;7.694;2023-05-07T04:20:49;2.75;;;2.55;;
5999;SDS011;3028;49.468;7.694;2023-05-07T04:22:51;3.20;;;2.90;;
5999;SDS011;3028;49.468;7.694;2023-05-07T04:24:53;2.85;;;2.45;;
5999;SDS011;3028;49.468;7.694;2023-05-07T04:26:54;3.03;;;2.75;;
5999;SDS011;3028;49.468;7.694;2023-05-07T04:28:56;2.65;;;2.45;;
5999;SDS011;3028;49.468;7.694;2023-05-07T04:30:59;2.78;;;2.58;;
5999;SDS011;3028;49.468;7.694;2023-05-07T04:33:00;2.80;;;2.53;;
5999;SDS011;3028;49.468;7.694;2023-05-07T04:35:02;3.65;;;2.28;;
5999;SDS011;3028;49.468;7.694;2023-05-07T04:37:04;3.45;;;2.70;;
5999;SDS011;3028;49.468;7.694;2023-05-07T04:39:05;2.60;;;2.40;;
5999;SDS011;3028;49.468;7.694;2023-05-07T04:41:08;2.60;;;2.08;;
5999;SDS011;3028;49.468;7.694;2023-05-07T04:43:10;3.17;;;2.72;;
5999;SDS011;3028;49.468;7.694;2023-05-07T04:45:11;2.97;;;2.78;;
5999;SDS011;3028;49.468;7.694;2023-05-07T04:47:13;2.70;;;2.50;;
5999;SDS011;3028;49.468;7.694;2023-05-07T04:49:15;2.45;;;2.25;;
5999;SDS011;3028;49.468;7.694;2023-05-07T04:51:16;2.55;;;2.35;;
5999;SDS011;3028;49.468;7.694;2023-05-07T04:53:18;3.10;;;2.80;;
5999;SDS011;3028;49.468;7.694;2023-05-07T04:55:20;2.53;;;2.33;;
5999;SDS011;3028;49.468;7.694;2023-05-07T04:57:21;4.10;;;3.00;;
5999;SDS011;3028;49.468;7.694;2023-05-07T04:59:22;4.32;;;3.83;;
5999;SDS011;3028;49.468;7.694;2023-05-07T05:01:24;3.25;;;2.95;;
5999;SDS011;3028;49.468;7.694;2023-05-07T05:03:26;3.33;;;3.00;;
5999;SDS011;3028;49.468;7.694;2023-05-07T05:05:28;4.53;;;3.10;;
5999;SDS011;3028;49.468;7.694;2023-05-07T05:07:29;2.88;;;2.67;;
5999;SDS011;3028;49.468;7.694;2023-05-07T05:09:31;4.00;;;2.65;;
5999;SDS011;3028;49.468;7.694;2023-05-07T05:11:32;2.60;;;2.38;;
5999;SDS011;3028;49.468;7.694;2023-05-07T05:13:34;3.58;;;2.85;;
5999;SDS011;3028;49.468;7.694;2023-05-07T05:15:35;4.20;;;3.08;;
5999;SDS011;3028;49.468;7.694;2023-05-07T05:17:37;5.53;;;3.50;;
5999;SDS011;3028;49.468;7.694;2023-05-07T05:19:38;4.00;;;3.67;;
5999;SDS011;3028;49.468;7.694;2023-05-07T05:21:40;3.35;;;3.05;;
5999;SDS011;3028;49.468;7.694;2023-05-07T05:23:42;3.25;;;2.95;;
5999;SDS011;3028;49.468;7.694;2023-05-07T05:25:43;3.28;;;2.75;;
5999;SDS011;3028;49.468;7.694;2023-05-07T05:27:45;2.47;;;2.28;;
5999;SDS011;3028;49.468;7.694;2023-05-07T05:29:46;5.82;;;2.47;;
5999;SDS011;3028;49.468;7.694;2023-05-07T05:31:49;8.20;;;3.10;;
5999;SDS011;3028;49.468;7.694;2023-05-07T05:33:50;3.92;;;2.10;;
5999;SDS011;3028;49.468;7.694;2023-05-07T05:35:53;6.28;;;2.85;;
5999;SDS011;3028;49.468;7.694;2023-05-07T05:37:55;3.67;;;3.38;;
5999;SDS011;3028;49.468;7.694;2023-05-07T05:39:56;2.80;;;2.60;;
5999;SDS011;3028;49.468;7.694;2023-05-07T05:41:58;3.28;;;2.97;;
5999;SDS011;3028;49.468;7.694;2023-05-07T05:43:59;8.07;;;2.70;;
5999;SDS011;3028;49.468;7.694;2023-05-07T05:46:01;2.78;;;2.45;;
5999;SDS011;3028;49.468;7.694;2023-05-07T05:48:03;3.92;;;3.10;;
5999;SDS011;3028;49.468;7.694;2023-05-07T05:50:05;3.20;;;2.90;;
5999;SDS011;3028;49.468;7.694;2023-05-07T05:52:08;4.90;;;4.13;;
5999;SDS011;3028;49.468;7.694;2023-05-07T05:54:11;2.63;;;2.42;;
5999;SDS011;3028;49.468;7.694;2023-05-07T05:56:13;2.97;;;2.35;;
5999;SDS011;3028;49.468;7.694;2023-05-07T05:58:14;3.60;;;2.90;;
5999;SDS011;3028;49.468;7.694;2023-05-07T06:00:16;2.80;;;2.50;;
5999;SDS011;3028;49.468;7.694;2023-05-07T06:02:18;3.65;;;2.92;;
5999;SDS011;3028;49.468;7.694;2023-05-07T06:04:19;4.75;;;3.55;;
5999;SDS011;3028;49.468;7.694;2023-05-07T06:06:21;3.65;;;3.00;;
5999;SDS011;3028;49.468;7.694;2023-05-07T06:08:22;4.03;;;3.13;;
5999;SDS011;3028;49.468;7.694;2023-05-07T06:10:24;2.72;;;2.53;;
5999;SDS011;3028;49.468;7.694;2023-05-07T06:12:26;1.98;;;1.77;;
5999;SDS011;3028;49.468;7.694;2023-05-07T06:14:28;3.33;;;2.63;;
5999;SDS011;3028;49.468;7.694;2023-05-07T06:16:29;2.08;;;1.88;;
5999;SDS011;3028;49.468;7.694;2023-05-07T06:18:31;2.65;;;1.75;;
5999;SDS011;3028;49.468;7.694;2023-05-07T06:20:32;2.63;;;2.42;;
5999;SDS011;3028;49.468;7.694;2023-05-07T06:22:34;4.35;;;2.65;;
5999;SDS011;3028;49.468;7.694;2023-05-07T06:24:35;2.15;;;1.92;;
5999;SDS011;3028;49.468;7.694;2023-05-07T06:26:37;3.40;;;2.47;;
5999;SDS011;3028;49.468;7.694;2023-05-07T06:28:38;2.53;;;2.10;;
5999;SDS011;3028;49.468;7.694;2023-05-07T06:30:40;3.13;;;1.98;;
5999;SDS011;3028;49.468;7.694;2023-05-07T06:32:41;2.90;;;2.00;;
5999;SDS011;3028;49.468;7.694;2023-05-07T06:34:43;3.05;;;2.45;;
5999;SDS011;3028;49.468;7.694;2023-05-07T06:36:45;3.97;;;2.67;;
5999;SDS011;3028;49.468;7.694;2023-05-07T06:38:46;2.88;;;2.00;;
5999;SDS011;3028;49.468;7.694;2023-05-07T06:40:49;2.70;;;2.10;;
5999;SDS011;3028;49.468;7.694;2023-05-07T06:42:50;5.97;;;2.10;;
5999;SDS011;3028;49.468;7.694;2023-05-07T06:44:52;2.10;;;1.90;;
5999;SDS011;3028;49.468;7.694;2023-05-07T06:46:53;3.03;;;2.55;;
5999;SDS011;3028;49.468;7.694;2023-05-07T06:48:55;2.85;;;2.55;;
5999;SDS011;3028;49.468;7.694;2023-05-07T06:50:57;2.47;;;1.80;;
5999;SDS011;3028;49.468;7.694;2023-05-07T06:52:59;2.53;;;1.80;;
5999;SDS011;3028;49.468;7.694;2023-05-07T06:55:01;2.47;;;2.10;;
5999;SDS011;3028;49.468;7.694;2023-05-07T06:57:02;2.00;;;1.83;;
5999;SDS011;3028;49.468;7.694;2023-05-07T06:59:04;1.75;;;1.65;;
5999;SDS011;3028;49.468;7.694;2023-05-07T07:01:05;1.50;;;1.40;;
5999;SDS011;3028;49.468;7.694;2023-05-07T07:03:07;2.60;;;1.80;;
5999;SDS011;3028;49.468;7.694;2023-05-07T07:05:09;2.55;;;1.70;;
5999;SDS011;3028;49.468;7.694;2023-05-07T07:07:10;3.65;;;1.67;;
5999;SDS011;3028;49.468;7.694;2023-05-07T07:09:12;2.40;;;2.20;;
5999;SDS011;3028;49.468;7.694;2023-05-07T07:11:13;2.35;;;1.92;;
5999;SDS011;3028;49.468;7.694;2023-05-07T07:13:15;2.45;;;1.83;;
5999;SDS011;3028;49.468;7.694;2023-05-07T07:15:17;2.53;;;2.08;;
5999;SDS011;3028;49.468;7.694;2023-05-07T07:17:19;2.47;;;1.70;;
5999;SDS011;3028;49.468;7.694;2023-05-07T07:19:20;4.78;;;2.75;;
5999;SDS011;3028;49.468;7.694;2023-05-07T07:21:22;3.50;;;2.65;;
5999;SDS011;3028;49.468;7.694;2023-05-07T07:23:23;4.30;;;2.47;;
5999;SDS011;3028;49.468;7.694;2023-05-07T07:25:25;3.25;;;2.38;;
5999;SDS011;3028;49.468;7.694;2023-05-07T07:27:26;5.47;;;1.83;;
5999;SDS011;3028;49.468;7.694;2023-05-07T07:29:28;3.35;;;1.80;;
5999;SDS011;3028;49.468;7.694;2023-05-07T07:31:30;5.60;;;1.58;;
5999;SDS011;3028;49.468;7.694;2023-05-07T07:33:32;2.05;;;1.75;;
5999;SDS011;3028;49.468;7.694;2023-05-07T07:35:34;2.80;;;2.08;;
5999;SDS011;3028;49.468;7.694;2023-05-07T07:37:35;4.07;;;2.22;;
5999;SDS011;3028;49.468;7.694;2023-05-07T07:39:37;2.83;;;2.17;;
5999;SDS011;3028;49.468;7.694;2023-05-07T07:41:39;3.97;;;1.73;;
5999;SDS011;3028;49.468;7.694;2023-05-07T07:43:40;1.67;;;1.58;;
5999;SDS011;3028;49.468;7.694;2023-05-07T07:45:42;3.50;;;1.98;;
5999;SDS011;3028;49.468;7.694;2023-05-07T07:47:44;3.28;;;1.98;;
5999;SDS011;3028;49.468;7.694;2023-05-07T07:49:46;2.00;;;1.80;;
5999;SDS011;3028;49.468;7.694;2023-05-07T07:51:47;2.17;;;1.98;;
5999;SDS011;3028;49.468;7.694;2023-05-07T07:53:49;3.50;;;1.70;;
5999;SDS011;3028;49.468;7.694;2023-05-07T07:55:50;2.05;;;1.90;;
5999;SDS011;3028;49.468;7.694;2023-05-07T07:57:54;6.15;;;2.08;;
5999;SDS011;3028;49.468;7.694;2023-05-07T07:59:55;3.40;;;2.15;;
5999;SDS011;3028;49.468;7.694;2023-05-07T08:01:57;3.72;;;1.98;;
5999;SDS011;3028;49.468;7.694;2023-05-07T08:03:59;3.58;;;1.42;;
5999;SDS011;3028;49.468;7.694;2023-05-07T08:06:01;1.88;;;1.70;;
5999;SDS011;3028;49.468;7.694;2023-05-07T08:08:02;3.45;;;1.88;;
5999;SDS011;3028;49.468;7.694;2023-05-07T08:10:04;2.28;;;1.65;;
5999;SDS011;3028;49.468;7.694;2023-05-07T08:12:06;1.88;;;1.38;;
5999;SDS011;3028;49.468;7.694;2023-05-07T08:14:08;1.73;;;1.63;;
5999;SDS011;3028;49.468;7.694;2023-05-07T08:16:09;2.58;;;1.98;;
5999;SDS011;3028;49.468;7.694;2023-05-07T08:18:11;2.15;;;1.90;;
5999;SDS011;3028;49.468;7.694;2023-05-07T08:20:13;2.65;;;1.98;;
5999;SDS011;3028;49.468;7.694;2023-05-07T08:22:15;3.80;;;1.70;;
5999;SDS011;3028;49.468;7.694;2023-05-07T08:24:17;3.08;;;1.70;;
5999;SDS011;3028;49.468;7.694;2023-05-07T08:26:19;2.20;;;1.50;;
5999;SDS011;3028;49.468;7.694;2023-05-07T08:28:21;2.85;;;1.90;;
5999;SDS011;3028;49.468;7.694;2023-05-07T08:30:23;1.88;;;1.67;;
5999;SDS011;3028;49.468;7.694;2023-05-07T08:32:24;1.92;;;1.52;;
5999;SDS011;3028;49.468;7.694;2023-05-07T08:34:26;2.45;;;1.40;;
5999;SDS011;3028;49.468;7.694;2023-05-07T08:36:27;1.70;;;1.60;;
5999;SDS011;3028;49.468;7.694;2023-05-07T08:38:29;2.10;;;1.88;;
5999;SDS011;3028;49.468;7.694;2023-05-07T08:40:34;4.13;;;1.60;;
5999;SDS011;3028;49.468;7.694;2023-05-07T08:42:38;2.60;;;1.30;;
5999;SDS011;3028;49.468;7.694;2023-05-07T08:44:41;1.88;;;1.35;;
5999;SDS011;3028;49.468;7.694;2023-05-07T08:46:46;1.50;;;1.40;;
5999;SDS011;3028;49.468;7.694;2023-05-07T08:48:49;2.28;;;1.40;;
5999;SDS011;3028;49.468;7.694;2023-05-07T08:50:51;2.55;;;1.50;;
5999;SDS011;3028;49.468;7.694;2023-05-07T08:52:53;1.30;;;1.20;;
5999;SDS011;3028;49.468;7.694;2023-05-07T08:54:55;2.25;;;1.00;;
5999;SDS011;3028;49.468;7.694;2023-05-07T08:56:57;1.40;;;1.30;;
5999;SDS011;3028;49.468;7.694;2023-05-07T08:58:59;1.83;;;1.48;;
5999;SDS011;3028;49.468;7.694;2023-05-07T09:01:02;1.33;;;1.08;;
5999;SDS011;3028;49.468;7.694;2023-05-07T09:03:06;1.52;;;1.40;;
5999;SDS011;3028;49.468;7.694;2023-05-07T09:05:08;6.25;;;1.38;;
5999;SDS011;3028;49.468;7.694;2023-05-07T09:07:10;1.30;;;1.20;;
5999;SDS011;3028;49.468;7.694;2023-05-07T09:09:14;3.63;;;1.55;;
5999;SDS011;3028;49.468;7.694;2023-05-07T09:11:16;1.55;;;1.20;;
5999;SDS011;3028;49.468;7.694;2023-05-07T09:13:17;2.00;;;1.10;;
5999;SDS011;3028;49.468;7.694;2023-05-07T09:15:19;1.58;;;1.27;;
5999;SDS011;3028;49.468;7.694;2023-05-07T09:17:21;2.60;;;1.08;;
5999;SDS011;3028;49.468;7.694;2023-05-07T09:19:23;2.65;;;0.85;;
5999;SDS011;3028;49.468;7.694;2023-05-07T09:21:25;0.90;;;0.90;;
5999;SDS011;3028;49.468;7.694;2023-05-07T09:23:28;1.40;;;0.90;;
5999;SDS011;3028;49.468;7.694;2023-05-07T09:25:31;2.03;;;1.17;;
5999;SDS011;3028;49.468;7.694;2023-05-07T09:27:33;1.70;;;1.42;;
5999;SDS011;3028;49.468;7.694;2023-05-07T09:29:34;3.25;;;1.48;;
5999;SDS011;3028;49.468;7.694;2023-05-07T09:31:37;1.27;;;1.10;;
5999;SDS011;3028;49.468;7.694;2023-05-07T09:33:39;1.73;;;1.30;;
5999;SDS011;3028;49.468;7.694;2023-05-07T09:35:40;1.40;;;1.30;;
5999;SDS011;3028;49.468;7.694;2023-05-07T09:37:42;1.10;;;1.00;;
5999;SDS011;3028;49.468;7.694;2023-05-07T09:39:47;2.55;;;1.08;;
5999;SDS011;3028;49.468;7.694;2023-05-07T09:41:50;1.05;;;0.93;;
5999;SDS011;3028;49.468;7.694;2023-05-07T09:43:53;2.20;;;1.00;;
5999;SDS011;3028;49.468;7.694;2023-05-07T09:45:55;1.73;;;1.08;;
5999;SDS011;3028;49.468;7.694;2023-05-07T09:47:58;1.20;;;1.10;;
5999;SDS011;3028;49.468;7.694;2023-05-07T09:50:00;1.45;;;1.35;;
5999;SDS011;3028;49.468;7.694;2023-05-07T09:52:06;1.83;;;1.10;;
5999;SDS011;3028;49.468;7.694;2023-05-07T09:54:10;2.63;;;0.90;;
5999;SDS011;3028;49.468;7.694;2023-05-07T09:56:12;1.55;;;1.02;;
5999;SDS011;3028;49.468;7.694;2023-05-07T09:58:15;1.55;;;1.05;;
5999;SDS011;3028;49.468;7.694;2023-05-07T10:00:19;1.25;;;1.05;;
5999;SDS011;3028;49.468;7.694;2023-05-07T10:02:21;1.17;;;1.08;;
5999;SDS011;3028;49.468;7.694;2023-05-07T10:04:23;1.38;;;1.05;;
5999;SDS011;3028;49.468;7.694;2023-05-07T10:06:25;1.60;;;1.02;;
5999;SDS011;3028;49.468;7.694;2023-05-07T10:08:26;1.00;;;0.90;;
5999;SDS011;3028;49.468;7.694;2023-05-07T10:10:29;1.48;;;1.08;;
5999;SDS011;3028;49.468;7.694;2023-05-07T10:12:30;1.38;;;0.98;;
5999;SDS011;3028;49.468;7.694;2023-05-07T10:14:38;0.93;;;0.93;;
5999;SDS011;3028;49.468;7.694;2023-05-07T10:16:41;1.17;;;1.00;;
5999;SDS011;3028;49.468;7.694;2023-05-07T10:18:42;0.93;;;0.80;;
5999;SDS011;3028;49.468;7.694;2023-05-07T10:20:44;1.88;;;1.15;;
5999;SDS011;3028;49.468;7.694;2023-05-07T10:22:47;2.25;;;1.25;;
5999;SDS011;3028;49.468;7.694;2023-05-07T10:24:50;1.05;;;0.95;;
5999;SDS011;3028;49.468;7.694;2023-05-07T10:26:54;1.48;;;1.20;;
5999;SDS011;3028;49.468;7.694;2023-05-07T10:29:42;1.38;;;1.15;;
5999;SDS011;3028;49.468;7.694;2023-05-07T10:31:38;3.38;;;1.17;;
5999;SDS011;3028;49.468;7.694;2023-05-07T10:33:55;3.15;;;1.73;;
5999;SDS011;3028;49.468;7.694;2023-05-07T10:35:58;1.23;;;0.90;;
5999;SDS011;3028;49.468;7.694;2023-05-07T10:38:02;1.10;;;0.93;;
5999;SDS011;3028;49.468;7.694;2023-05-07T10:40:04;2.70;;;0.98;;
5999;SDS011;3028;49.468;7.694;2023-05-07T10:42:11;1.38;;;0.93;;
5999;SDS011;3028;49.468;7.694;2023-05-07T10:44:27;1.30;;;1.10;;
5999;SDS011;3028;49.468;7.694;2023-05-07T10:46:29;1.10;;;0.85;;
5999;SDS011;3028;49.468;7.694;2023-05-07T10:48:34;0.85;;;0.73;;
5999;SDS011;3028;49.468;7.694;2023-05-07T10:51:18;3.13;;;1.02;;
5999;SDS011;3028;49.468;7.694;2023-05-07T10:53:22;2.17;;;1.20;;
5999;SDS011;3028;49.468;7.694;2023-05-07T10:55:27;3.03;;;1.08;;
5999;SDS011;3028;49.468;7.694;2023-05-07T10:59:33;1.50;;;0.98;;
5999;SDS011;3028;49.468;7.694;2023-05-07T11:01:58;1.05;;;0.80;;
5999;SDS011;3028;49.468;7.694;2023-05-07T11:04:13;3.00;;;0.90;;
5999;SDS011;3028;49.468;7.694;2023-05-07T11:06:16;1.02;;;0.88;;
5999;SDS011;3028;49.468;7.694;2023-05-07T11:08:17;3.40;;;1.10;;
5999;SDS011;3028;49.468;7.694;2023-05-07T11:10:19;1.15;;;0.90;;
5999;SDS011;3028;49.468;7.694;2023-05-07T11:14:44;2.28;;;1.08;;
5999;SDS011;3028;49.468;7.694;2023-05-07T11:16:46;1.10;;;1.00;;
5999;SDS011;3028;49.468;7.694;2023-05-07T11:18:48;1.58;;;1.15;;
5999;SDS011;3028;49.468;7.694;2023-05-07T11:20:53;1.88;;;1.58;;
5999;SDS011;3028;49.468;7.694;2023-05-07T11:22:56;1.17;;;0.95;;
5999;SDS011;3028;49.468;7.694;2023-05-07T11:25:01;2.10;;;1.10;;
5999;SDS011;3028;49.468;7.694;2023-05-07T11:27:03;1.40;;;1.20;;
5999;SDS011;3028;49.468;7.694;2023-05-07T11:29:09;1.00;;;0.88;;
5999;SDS011;3028;49.468;7.694;2023-05-07T11:31:15;1.60;;;1.08;;
5999;SDS011;3028;49.468;7.694;2023-05-07T11:33:22;0.93;;;0.70;;
5999;SDS011;3028;49.468;7.694;2023-05-07T11:35:24;2.42;;;1.75;;
5999;SDS011;3028;49.468;7.694;2023-05-07T11:37:26;1.98;;;1.00;;
5999;SDS011;3028;49.468;7.694;2023-05-07T11:39:31;1.27;;;1.05;;
5999;SDS011;3028;49.468;7.694;2023-05-07T11:41:37;1.05;;;0.85;;
5999;SDS011;3028;49.468;7.694;2023-05-07T11:43:49;1.10;;;1.00;;
5999;SDS011;3028;49.468;7.694;2023-05-07T11:45:58;1.38;;;1.08;;
5999;SDS011;3028;49.468;7.694;2023-05-07T11:48:06;2.08;;;1.15;;
5999;SDS011;3028;49.468;7.694;2023-05-07T11:50:08;2.80;;;0.98;;
5999;SDS011;3028;49.468;7.694;2023-05-07T11:52:12;1.40;;;1.10;;
5999;SDS011;3028;49.468;7.694;2023-05-07T11:54:17;2.33;;;0.85;;
5999;SDS011;3028;49.468;7.694;2023-05-07T11:56:18;1.13;;;0.88;;
5999;SDS011;3028;49.468;7.694;2023-05-07T11:58:21;1.58;;;1.20;;
5999;SDS011;3028;49.468;7.694;2023-05-07T12:00:23;1.35;;;1.25;;
5999;SDS011;3028;49.468;7.694;2023-05-07T12:02:25;1.30;;;1.20;;
5999;SDS011;3028;49.468;7.694;2023-05-07T12:04:29;1.95;;;1.02;;
5999;SDS011;3028;49.468;7.694;2023-05-07T12:06:31;1.45;;;1.10;;
5999;SDS011;3028;49.468;7.694;2023-05-07T12:08:38;2.30;;;1.40;;
5999;SDS011;3028;49.468;7.694;2023-05-07T12:10:41;2.55;;;1.50;;
5999;SDS011;3028;49.468;7.694;2023-05-07T12:12:45;2.13;;;1.92;;
5999;SDS011;3028;49.468;7.694;2023-05-07T12:14:47;2.88;;;2.35;;
5999;SDS011;3028;49.468;7.694;2023-05-07T12:16:49;2.05;;;1.67;;
5999;SDS011;3028;49.468;7.694;2023-05-07T12:18:50;4.28;;;1.90;;
5999;SDS011;3028;49.468;7.694;2023-05-07T12:20:53;2.65;;;2.00;;
5999;SDS011;3028;49.468;7.694;2023-05-07T12:22:55;6.20;;;2.05;;
5999;SDS011;3028;49.468;7.694;2023-05-07T12:24:57;3.15;;;1.85;;
5999;SDS011;3028;49.468;7.694;2023-05-07T12:26:59;2.70;;;2.20;;
5999;SDS011;3028;49.468;7.694;2023-05-07T12:29:01;3.25;;;2.13;;
5999;SDS011;3028;49.468;7.694;2023-05-07T12:31:04;2.15;;;1.95;;
5999;SDS011;3028;49.468;7.694;2023-05-07T12:33:06;2.40;;;1.70;;
5999;SDS011;3028;49.468;7.694;2023-05-07T12:35:08;2.60;;;1.80;;
5999;SDS011;3028;49.468;7.694;2023-05-07T12:37:11;2.20;;;1.65;;
5999;SDS011;3028;49.468;7.694;2023-05-07T12:39:13;1.70;;;1.33;;
5999;SDS011;3028;49.468;7.694;2023-05-07T12:41:15;2.60;;;1.50;;
5999;SDS011;3028;49.468;7.694;2023-05-07T12:43:18;2.22;;;1.88;;
5999;SDS011;3028;49.468;7.694;2023-05-07T12:45:25;2.25;;;1.75;;